createdAt,value
2019-04-29T00:01:00.142Z,989.2
2019-04-29T00:06:01.655Z,989.3
2019-04-29T00:11:01.643Z,989.3
2019-04-29T00:16:01.631Z,989.3
2019-04-29T00:21:01.641Z,989.3
2019-04-29T00:26:01.606Z,989.4
2019-04-29T00:31:01.620Z,989.5
2019-04-29T00:36:01.621Z,989.5
2019-04-29T00:41:01.593Z,989.7
2019-04-29T00:46:01.619Z,989.7
2019-04-29T00:51:01.572Z,989.8
2019-04-29T00:56:01.605Z,989.7
2019-04-29T01:01:01.562Z,989.7
2019-04-29T01:06:02.620Z,989.7
2019-04-29T01:11:01.550Z,989.6
2019-04-29T01:16:01.547Z,989.5
2019-04-29T01:21:01.565Z,989.5
2019-04-29T01:26:01.576Z,989.5
2019-04-29T01:31:01.593Z,989.5
2019-04-29T01:36:01.541Z,989.5
2019-04-29T01:41:01.552Z,989.4
2019-04-29T01:46:01.513Z,989.4
2019-04-29T01:51:01.574Z,989.4
2019-04-29T01:56:01.517Z,989.5
2019-04-29T02:01:01.549Z,989.6
2019-04-29T02:06:01.510Z,989.7
2019-04-29T02:11:01.533Z,989.7
2019-04-29T02:16:01.520Z,989.8
2019-04-29T02:21:01.547Z,989.8
2019-04-29T02:26:01.524Z,989.7
2019-04-29T02:31:01.505Z,989.6
2019-04-29T02:36:01.490Z,989.4
2019-04-29T02:41:01.473Z,989.3
2019-04-29T02:46:01.706Z,989.1
2019-04-29T02:51:01.542Z,988.8
2019-04-29T02:56:01.473Z,988.6
2019-04-29T03:01:01.467Z,988.7
2019-04-29T03:06:01.479Z,988.5
2019-04-29T03:11:12.051Z,988.6
2019-04-29T03:16:01.569Z,988.8
2019-04-29T03:21:01.506Z,988.9
2019-04-29T03:26:01.424Z,988.9
2019-04-29T03:31:01.436Z,988.9
2019-04-29T03:36:01.461Z,989.1
2019-04-29T03:41:01.425Z,989.2
2019-04-29T03:46:01.433Z,989.3
2019-04-29T03:51:01.413Z,989.3
2019-04-29T03:56:01.451Z,989.3
2019-04-29T04:01:01.437Z,989.3
2019-04-29T04:06:01.410Z,989.4
2019-04-29T04:11:01.431Z,989.4
2019-04-29T04:16:01.383Z,989.5
2019-04-29T04:21:04.288Z,989.5
2019-04-29T04:26:01.416Z,989.5
2019-04-29T04:31:06.340Z,989.7
2019-04-29T04:36:02.184Z,989.7
2019-04-29T04:41:02.195Z,989.8
2019-04-29T04:46:02.153Z,990
2019-04-29T04:51:02.201Z,990
2019-04-29T04:56:02.143Z,990
2019-04-29T05:01:02.174Z,990.1
2019-04-29T05:06:02.153Z,990.1
2019-04-29T05:11:08.129Z,990.2
2019-04-29T05:16:02.167Z,990.2
2019-04-29T05:21:02.132Z,990.2
2019-04-29T05:26:06.772Z,990.3
2019-04-29T05:31:06.784Z,990.4
2019-04-29T05:36:06.766Z,990.4
2019-04-29T05:41:06.773Z,990.5
2019-04-29T05:46:07.462Z,990.5
2019-04-29T05:51:06.739Z,990.5
2019-04-29T05:56:07.467Z,990.5
2019-04-29T06:01:07.468Z,990.6
2019-04-29T06:06:07.475Z,990.7
2019-04-29T06:11:07.450Z,990.6
2019-04-29T06:16:07.475Z,990.6
2019-04-29T06:21:11.575Z,990.6
2019-04-29T06:26:11.565Z,990.6
2019-04-29T06:28:02.762Z,990.6
2019-04-29T06:33:06.886Z,990.7
2019-04-29T06:38:02.750Z,990.6
2019-04-29T06:43:02.759Z,990.6
2019-04-29T06:48:02.792Z,990.7
2019-04-29T06:53:04.338Z,990.7
2019-04-29T06:58:02.762Z,990.7
2019-04-29T07:03:02.725Z,990.8
2019-04-29T07:08:02.728Z,990.8
2019-04-29T07:13:02.718Z,990.8
2019-04-29T07:18:02.729Z,991
2019-04-29T07:23:02.720Z,991
2019-04-29T07:28:04.201Z,990.9
2019-04-29T07:33:13.370Z,990.9
2019-04-29T07:38:04.387Z,990.9
2019-04-29T07:43:07.342Z,991
2019-04-29T07:48:06.242Z,991
2019-04-29T07:53:02.671Z,991.1
2019-04-29T07:58:02.690Z,991
2019-04-29T08:03:02.690Z,991
2019-04-29T08:08:02.697Z,991
2019-04-29T08:13:02.675Z,991.2
2019-04-29T08:18:06.554Z,991.2
2019-04-29T08:23:04.109Z,991.2
2019-04-29T08:28:02.657Z,991.3
2019-04-29T08:33:02.650Z,991.3
2019-04-29T08:38:09.359Z,991.3
2019-04-29T08:43:10.740Z,991.4
2019-04-29T08:48:09.353Z,991.4
2019-04-29T08:53:09.349Z,991.5
2019-04-29T08:58:11.143Z,991.5
2019-04-29T09:03:09.402Z,991.6
2019-04-29T09:08:09.381Z,991.5
2019-04-29T09:13:09.432Z,991.5
2019-04-29T09:18:11.060Z,991.5
2019-04-29T09:23:09.353Z,991.4
2019-04-29T09:28:09.338Z,991.3
2019-04-29T09:33:14.544Z,991.4
2019-04-29T09:38:14.203Z,991.4
2019-04-29T09:43:16.622Z,991.4
2019-04-29T09:48:14.176Z,991.4
2019-04-29T09:53:14.239Z,991.4
2019-04-29T09:58:14.158Z,991.3
2019-04-29T10:03:14.150Z,991.3
2019-04-29T10:08:14.115Z,991.3
2019-04-29T10:13:15.555Z,991.3
2019-04-29T10:18:14.100Z,991.3
2019-04-29T10:23:14.095Z,991.3
2019-04-29T10:28:14.155Z,991.3
2019-04-29T10:33:17.504Z,991.3
2019-04-29T10:38:14.110Z,991.3
2019-04-29T10:48:22.937Z,991.3
2019-04-29T10:53:22.960Z,991.3
2019-04-29T10:58:29.814Z,991.4
2019-04-29T11:03:24.979Z,991.5
2019-04-29T11:08:22.914Z,991.5
2019-04-29T11:13:22.950Z,991.5
2019-04-29T11:18:24.761Z,991.4
2019-04-29T11:23:22.935Z,991.4
2019-04-29T11:28:22.903Z,991.4
2019-04-29T11:33:22.914Z,991.4
2019-04-29T11:38:22.885Z,991.4
2019-04-29T11:43:22.913Z,991.4
2019-04-29T11:48:27.087Z,991.3
2019-04-29T11:53:28.487Z,991.2
2019-04-29T11:58:26.837Z,991.2
2019-04-29T12:03:26.821Z,991.2
2019-04-29T12:08:26.809Z,991.2
2019-04-29T12:13:28.260Z,991.2
2019-04-29T12:18:26.809Z,991.1
2019-04-29T12:23:26.796Z,991
2019-04-29T12:28:27.063Z,991
2019-04-29T12:33:26.776Z,991
2019-04-29T12:38:39.249Z,991
2019-04-29T12:43:26.775Z,991.2
2019-04-29T12:48:26.889Z,991.2
2019-04-29T12:53:26.777Z,991.2
2019-04-29T12:58:26.750Z,991.2
2019-04-29T13:28:03.833Z,991.1
2019-04-29T13:33:01.058Z,991.1
2019-04-29T13:37:58.081Z,991.1
2019-04-29T13:42:57.921Z,991.1
2019-04-29T13:48:01.718Z,991
2019-04-29T13:52:57.915Z,991
2019-04-29T13:57:57.888Z,990.9
2019-04-29T14:02:58.960Z,990.8
2019-04-29T14:07:57.899Z,990.7
2019-04-29T14:13:09.595Z,990.7
2019-04-29T14:17:57.863Z,990.8
2019-04-29T14:22:57.851Z,990.9
2019-04-29T14:27:57.874Z,991
2019-04-29T14:32:57.850Z,991.1
2019-04-29T14:38:03.998Z,991.1
2019-04-29T14:42:58.352Z,991.2
2019-04-29T14:47:57.859Z,991.1
2019-04-29T14:52:57.841Z,991.2
2019-04-29T14:57:57.832Z,991.2
2019-04-29T15:03:00.560Z,991.2
2019-04-29T15:08:00.747Z,991.2
2019-04-29T15:13:06.630Z,991
2019-04-29T15:17:57.839Z,991.1
2019-04-29T15:54:34.676Z,991
2019-04-29T15:59:47.689Z,991
2019-04-29T16:04:34.712Z,991
2019-04-29T16:09:50.993Z,991
2019-04-29T16:14:34.696Z,991.1
2019-04-29T16:19:34.662Z,991
2019-04-29T16:24:38.159Z,991.1
2019-04-29T16:29:34.662Z,991.2
2019-04-29T16:34:37.314Z,991.1
2019-04-29T16:39:34.664Z,991.2
2019-04-29T16:44:36.356Z,991.2
2019-04-29T16:49:44.691Z,991.2
2019-04-29T16:54:34.838Z,991.2
2019-04-29T16:59:34.840Z,991.2
2019-04-29T17:04:34.896Z,991.1
2019-04-29T17:09:34.862Z,991
2019-04-29T17:14:50.805Z,991.1
2019-04-29T17:19:34.863Z,991.1
2019-04-29T17:24:34.845Z,991.1
2019-04-29T17:29:40.757Z,991.2
2019-04-29T17:34:56.345Z,991.2
2019-04-29T17:39:34.799Z,991.2
2019-04-29T17:44:34.808Z,991.3
2019-04-29T17:49:36.218Z,991.4
2019-04-29T17:54:34.907Z,991.4
2019-04-29T17:59:35.755Z,991.5
2019-04-29T18:04:36.037Z,991.5
2019-04-29T18:09:36.505Z,991.6
2019-04-29T18:14:38.767Z,991.6
2019-04-29T18:19:36.075Z,991.6
2019-04-29T18:25:41.577Z,991.7
2019-04-29T18:30:41.544Z,991.7
2019-04-29T18:35:41.541Z,991.7
2019-04-29T18:40:42.572Z,991.7
2019-04-29T18:45:52.808Z,991.6
2019-04-29T18:50:41.520Z,991.6
2019-04-29T18:55:41.526Z,991.6
2019-04-29T19:00:41.489Z,991.6
2019-04-29T19:05:45.244Z,991.6
2019-04-29T19:10:43.764Z,991.6
2019-04-29T19:15:44.927Z,991.6
2019-04-29T19:20:45.973Z,991.6
2019-04-29T19:25:49.678Z,991.5
2019-04-29T19:30:48.150Z,991.5
2019-04-29T19:35:48.083Z,991.7
2019-04-29T19:40:48.107Z,991.6
2019-04-29T19:45:48.928Z,991.6
2019-04-29T19:50:49.596Z,991.6
2019-04-29T19:55:48.187Z,991.6
2019-04-29T20:00:48.640Z,991.6
2019-04-29T20:05:48.416Z,991.6
2019-04-29T20:10:51.303Z,991.6
2019-04-29T20:15:48.361Z,991.6
2019-04-29T20:20:48.209Z,991.5
2019-04-29T20:25:48.527Z,991.5
2019-04-29T20:30:50.305Z,991.5
2019-04-29T20:35:49.265Z,991.5
2019-04-29T20:40:48.110Z,991.6
2019-04-29T20:45:48.177Z,991.6
2019-04-29T20:50:52.515Z,991.6
2019-04-29T20:55:48.077Z,991.6
2019-04-29T21:00:48.201Z,991.5
2019-04-29T21:05:50.275Z,991.6
2019-04-29T21:10:48.394Z,991.6
2019-04-29T21:15:51.945Z,991.5
2019-04-29T21:20:48.002Z,991.5
2019-04-29T21:25:47.999Z,991.5
2019-04-29T21:30:47.999Z,991.4
2019-04-29T21:35:49.464Z,991.4
2019-04-29T21:40:49.902Z,991.4
2019-04-29T21:45:48.420Z,991.4
2019-04-29T21:50:47.993Z,991.4
2019-04-29T21:55:48.301Z,991.4
2019-04-29T22:00:47.959Z,991.4
2019-04-29T22:05:53.405Z,991.4
2019-04-29T22:10:48.357Z,991.3
2019-04-29T22:15:47.974Z,991.3
2019-04-29T22:20:47.955Z,991.3
2019-04-29T22:25:48.293Z,991.3
2019-04-29T22:30:49.666Z,991.3
2019-04-29T22:35:47.951Z,991.3
2019-04-29T22:40:47.928Z,991.3
2019-04-29T22:45:47.930Z,991.3
2019-04-29T22:50:47.930Z,991.3
2019-04-29T22:55:47.879Z,991.3
2019-04-29T23:00:47.897Z,991.2
2019-04-29T23:05:47.886Z,991.2
2019-04-29T23:10:47.884Z,991.2
2019-04-29T23:15:47.912Z,991.1
2019-04-29T23:20:47.875Z,991.1
2019-04-29T23:25:47.898Z,991
2019-04-29T23:30:52.082Z,991
2019-04-29T23:35:47.906Z,991.1
2019-04-29T23:40:49.568Z,991
2019-04-29T23:45:51.763Z,991
2019-04-29T23:50:49.597Z,991
2019-04-29T23:55:48.593Z,991
